createdAt,value
2023-02-11T00:02:27.960Z,101790.45
2023-02-11T00:06:00.584Z,101785.79
2023-02-11T00:09:26.343Z,101783.27
2023-02-11T00:12:53.123Z,101787.61
2023-02-11T00:16:21.089Z,101788.42
2023-02-11T00:19:50.426Z,101784.19
2023-02-11T00:23:16.214Z,101781.76
2023-02-11T00:26:42.861Z,101760.04
2023-02-11T00:30:09.621Z,101760.77
2023-02-11T00:33:35.493Z,101770.14
2023-02-11T00:37:01.062Z,101768.14
2023-02-11T00:40:26.887Z,101762.02
2023-02-11T00:43:53.118Z,101743.96
2023-02-11T00:47:19.046Z,101720.37
2023-02-11T00:50:44.798Z,101704.59
2023-02-11T00:54:11.133Z,101680.92
2023-02-11T00:57:38.110Z,101672.48
2023-02-11T01:01:03.802Z,101667.61
2023-02-11T01:04:29.797Z,101664.52
2023-02-11T01:07:55.616Z,101655.58
2023-02-11T01:11:21.822Z,101632.02
2023-02-11T01:14:47.604Z,101624.36
2023-02-11T01:18:15.502Z,101619.95
2023-02-11T01:21:45.364Z,101624.73
2023-02-11T01:25:11.631Z,101622.58
2023-02-11T01:28:37.692Z,101632.53
2023-02-11T01:32:03.317Z,101631.37
2023-02-11T01:35:29.312Z,101636.34
2023-02-11T01:38:56.196Z,101649.98
2023-02-11T01:42:24.145Z,101650.71
2023-02-11T01:46:01.903Z,101668.28
2023-02-11T01:49:32.928Z,101673.66
2023-02-11T01:53:20.058Z,101679.98
2023-02-11T01:57:05.505Z,101689.02
2023-02-11T02:00:34.573Z,101681.53
2023-02-11T02:04:03.723Z,101660.91
2023-02-11T02:07:34.379Z,101635.25
2023-02-11T02:11:01.047Z,101636.67
2023-02-11T02:14:27.446Z,101628.75
2023-02-11T02:18:02.701Z,101611.16
2023-02-11T02:21:50.835Z,101595.16
2023-02-11T02:25:31.967Z,101588.61
2023-02-11T02:29:13.985Z,101590.39
2023-02-11T02:32:44.270Z,101600.90
2023-02-11T02:36:16.082Z,101598.20
2023-02-11T02:39:41.861Z,101596.46
2023-02-11T02:43:09.972Z,101587.84
2023-02-11T02:46:37.332Z,101573.88
2023-02-11T02:50:03.622Z,101570.12
2023-02-11T02:53:33.428Z,101566.63
2023-02-11T02:57:02.865Z,101572.09
2023-02-11T03:00:34.769Z,101560.67
2023-02-11T03:04:04.557Z,101551.11
2023-02-11T03:07:37.030Z,101552.70
2023-02-11T03:11:04.421Z,101546.02
2023-02-11T03:14:31.790Z,101552.93
2023-02-11T03:18:00.180Z,101548.75
2023-02-11T03:21:26.456Z,101542.05
2023-02-11T03:24:52.263Z,101538.77
2023-02-11T03:28:23.540Z,101526.42
2023-02-11T03:31:55.576Z,101504.58
2023-02-11T03:35:24.439Z,101497.56
2023-02-11T03:38:52.813Z,101490.52
2023-02-11T03:42:20.348Z,101486.82
2023-02-11T03:45:47.091Z,101479.26
2023-02-11T03:49:14.709Z,101479.86
2023-02-11T03:52:40.411Z,101477.55
2023-02-11T03:56:07.840Z,101466.64
2023-02-11T03:59:33.420Z,101460.17
2023-02-11T04:02:59.389Z,101457.37
2023-02-11T04:06:25.327Z,101449.14
2023-02-11T04:09:51.955Z,101444.57
2023-02-11T04:13:18.628Z,101444.02
2023-02-11T04:16:44.544Z,101443.41
2023-02-11T04:20:11.461Z,101444.80
2023-02-11T04:23:37.339Z,101439.05
2023-02-11T04:27:03.279Z,101424.86
2023-02-11T04:30:29.072Z,101423.26
2023-02-11T04:33:55.747Z,101418.39
2023-02-11T04:37:21.356Z,101411.08
2023-02-11T04:40:47.375Z,101401.84
2023-02-11T04:44:13.224Z,101395.91
2023-02-11T04:47:38.884Z,101389.39
2023-02-11T04:51:04.725Z,101400.20
2023-02-11T04:54:30.575Z,101405.44
2023-02-11T04:57:56.412Z,101397.42
2023-02-11T05:01:22.249Z,101407.08
2023-02-11T05:04:48.045Z,101394.60
2023-02-11T05:08:14.167Z,101395.33
2023-02-11T05:11:40.521Z,101389.04
2023-02-11T05:15:07.135Z,101373.67
2023-02-11T05:18:32.855Z,101375.61
2023-02-11T05:22:03.138Z,101378.30
2023-02-11T05:25:29.515Z,101370.27
2023-02-11T05:28:55.296Z,101363.06
2023-02-11T05:32:23.258Z,101364.27
2023-02-11T05:35:49.426Z,101370.58
2023-02-11T05:39:15.665Z,101371.98
2023-02-11T05:42:41.474Z,101366.56
2023-02-11T05:46:07.660Z,101353.07
2023-02-11T05:49:33.449Z,101342.69
2023-02-11T05:52:59.134Z,101350.15
2023-02-11T05:56:25.096Z,101354.81
2023-02-11T05:59:50.954Z,101350.55
2023-02-11T06:03:17.815Z,101351.10
2023-02-11T06:06:43.863Z,101351.23
2023-02-11T06:10:00.856Z,101341.46
2023-02-11T06:13:26.799Z,101339.61
2023-02-11T06:16:52.612Z,101339.07
2023-02-11T06:20:19.430Z,101349.09
2023-02-11T06:23:45.040Z,101339.46
2023-02-11T06:27:11.070Z,101341.70
2023-02-11T06:30:37.086Z,101342.25
2023-02-11T06:34:03.134Z,101333.08
2023-02-11T06:37:29.310Z,101326.59
2023-02-11T06:40:55.059Z,101330.27
2023-02-11T06:44:20.629Z,101339.25
2023-02-11T06:47:46.590Z,101340.75
2023-02-11T06:51:13.195Z,101343.95
2023-02-11T06:54:39.275Z,101342.98
2023-02-11T06:58:04.923Z,101336.95
2023-02-11T07:01:30.917Z,101330.05
2023-02-11T07:04:56.956Z,101314.64
2023-02-11T07:08:23.584Z,101317.95
2023-02-11T07:11:49.203Z,101314.91
2023-02-11T07:15:14.964Z,101316.48
2023-02-11T07:18:40.871Z,101304.75
2023-02-11T07:22:06.673Z,101300.65
2023-02-11T07:25:52.973Z,101299.71
2023-02-11T07:29:18.839Z,101295.97
2023-02-11T07:32:44.696Z,101303.76
2023-02-11T07:36:12.637Z,101296.31
2023-02-11T07:39:38.402Z,101290.55
2023-02-11T07:43:04.165Z,101295.84
2023-02-11T07:46:30.104Z,101302.94
2023-02-11T07:49:56.737Z,101298.54
2023-02-11T07:53:25.623Z,101299.98
2023-02-11T07:56:51.338Z,101295.90
2023-02-11T08:00:20.827Z,101292.86
2023-02-11T08:03:47.026Z,101303.85
2023-02-11T08:07:16.116Z,101310.27
2023-02-11T08:10:41.761Z,101308.30
2023-02-11T08:14:07.750Z,101311.79
2023-02-11T08:17:53.743Z,101319.19
2023-02-11T08:21:20.611Z,101296.94
2023-02-11T08:24:46.447Z,101307.73
2023-02-11T08:28:12.267Z,101314.44
2023-02-11T08:31:39.393Z,101308.89
2023-02-11T08:35:07.978Z,101308.29
2023-02-11T08:38:33.679Z,101302.88
2023-02-11T08:41:59.749Z,101310.96
2023-02-11T08:45:25.455Z,101307.80
2023-02-11T08:48:51.438Z,101299.20
2023-02-11T08:52:17.393Z,101289.92
2023-02-11T08:55:49.065Z,101293.98
2023-02-11T08:59:15.498Z,101285.08
2023-02-11T09:02:33.995Z,101285.02
2023-02-11T09:06:01.182Z,101284.67
2023-02-11T09:09:26.874Z,101290.25
2023-02-11T09:12:52.646Z,101289.26
2023-02-11T09:16:20.981Z,101296.64
2023-02-11T09:19:46.730Z,101310.55
2023-02-11T09:23:12.699Z,101307.60
2023-02-11T09:26:40.466Z,101292.48
2023-02-11T09:30:06.854Z,101292.18
2023-02-11T09:33:32.959Z,101272.52
2023-02-11T09:36:58.524Z,101278.00
2023-02-11T09:40:24.530Z,101268.94
2023-02-11T09:43:52.960Z,101265.91
2023-02-11T09:47:25.830Z,101259.86
2023-02-11T09:50:52.835Z,101257.85
2023-02-11T09:54:23.120Z,101273.67
2023-02-11T09:57:48.790Z,101273.34
2023-02-11T10:01:22.920Z,101287.77
2023-02-11T10:05:01.840Z,101279.20
2023-02-11T10:08:31.730Z,101285.25
2023-02-11T10:12:04.202Z,101262.55
2023-02-11T10:15:39.092Z,101245.88
2023-02-11T10:19:13.921Z,101234.45
2023-02-11T10:22:42.452Z,101234.70
2023-02-11T10:26:12.972Z,101243.51
2023-02-11T10:29:42.088Z,101232.95
2023-02-11T10:33:12.612Z,101216.13
2023-02-11T10:36:38.786Z,101196.77
2023-02-11T10:40:14.956Z,101191.56
2023-02-11T10:43:43.417Z,101184.24
2023-02-11T10:47:12.347Z,101192.06
2023-02-11T10:50:38.410Z,101194.63
2023-02-11T10:54:21.394Z,101196.53
2023-02-11T10:57:53.940Z,101192.29
2023-02-11T11:01:24.625Z,101161.86
2023-02-11T11:04:50.860Z,101145.81
2023-02-11T11:08:18.561Z,101140.47
2023-02-11T11:11:52.161Z,101144.83
2023-02-11T11:15:21.732Z,101132.10
2023-02-11T11:18:37.485Z,101111.45
2023-02-11T11:22:03.214Z,101111.30
2023-02-11T11:25:30.451Z,101128.13
2023-02-11T11:28:58.912Z,101141.11
2023-02-11T11:32:26.717Z,101122.55
2023-02-11T11:36:01.610Z,101111.64
2023-02-11T11:39:28.924Z,101119.71
2023-02-11T11:43:09.123Z,101133.19
2023-02-11T11:46:36.464Z,101141.66
2023-02-11T11:50:18.973Z,101148.06
2023-02-11T11:53:49.294Z,101163.38
2023-02-11T11:57:13.536Z,101183.72
2023-02-11T12:00:45.611Z,101174.73
2023-02-11T12:04:20.580Z,101180.95
2023-02-11T12:07:54.965Z,101184.88
2023-02-11T12:11:27.329Z,101178.77
2023-02-11T12:14:59.920Z,101187.36
2023-02-11T12:18:47.250Z,101194.59
2023-02-11T12:22:14.078Z,101197.62
2023-02-11T12:25:30.905Z,101199.98
2023-02-11T12:28:44.501Z,101191.04
2023-02-11T12:32:16.153Z,101189.16
2023-02-11T12:35:33.596Z,101188.88
2023-02-11T12:38:48.187Z,101186.63
2023-02-11T12:42:41.999Z,101179.30
2023-02-11T12:46:01.540Z,101186.80
2023-02-11T12:49:18.614Z,101185.29
2023-02-11T12:52:36.994Z,101186.21
2023-02-11T12:56:05.526Z,101190.91
2023-02-11T12:59:45.144Z,101196.10
2023-02-11T13:02:56.776Z,101185.95
2023-02-11T13:06:04.711Z,101187.80
2023-02-11T13:09:25.149Z,101186.13
2023-02-11T13:13:01.275Z,101192.31
2023-02-11T13:16:15.044Z,101189.90
2023-02-11T13:19:27.631Z,101185.57
2023-02-11T13:22:34.630Z,101186.17
2023-02-11T13:25:45.229Z,101182.70
2023-02-11T13:28:55.368Z,101181.05
2023-02-11T13:32:08.875Z,101180.71
2023-02-11T13:35:31.790Z,101187.09
2023-02-11T13:38:37.746Z,101193.09
2023-02-11T13:41:51.580Z,101204.58
2023-02-11T13:45:02.377Z,101202.02
2023-02-11T13:48:24.243Z,101210.70
2023-02-11T13:51:38.938Z,101202.67
2023-02-11T13:55:00.755Z,101210.03
2023-02-11T13:58:20.203Z,101212.31
2023-02-11T14:02:13.302Z,101209.58
2023-02-11T14:05:44.634Z,101197.58
2023-02-11T14:09:08.976Z,101198.61
2023-02-11T14:12:40.957Z,101198.95
2023-02-11T14:16:08.072Z,101201.75
2023-02-11T14:19:31.689Z,101202.73
2023-02-11T14:22:45.544Z,101201.23
2023-02-11T14:26:27.862Z,101206.72
2023-02-11T14:29:39.475Z,101209.52
2023-02-11T14:32:53.365Z,101221.53
2023-02-11T14:36:06.775Z,101229.66
2023-02-11T14:39:19.490Z,101234.80
2023-02-11T14:42:35.889Z,101239.32
2023-02-11T14:46:02.457Z,101248.89
2023-02-11T14:49:19.463Z,101250.74
2023-02-11T14:52:45.409Z,101250.20
2023-02-11T14:55:52.534Z,101258.51
2023-02-11T14:59:01.696Z,101264.54
2023-02-11T15:02:23.819Z,101278.45
2023-02-11T15:05:30.051Z,101282.16
2023-02-11T15:09:00.886Z,101266.82
2023-02-11T15:12:27.200Z,101264.35
2023-02-11T15:15:55.807Z,101269.48
2023-02-11T15:19:24.395Z,101279.17
2023-02-11T15:22:54.270Z,101288.13
2023-02-11T15:26:22.677Z,101291.38
2023-02-11T15:29:40.168Z,101289.11
2023-02-11T15:33:00.490Z,101281.54
2023-02-11T15:36:16.713Z,101286.98
2023-02-11T15:39:43.191Z,101296.05
2023-02-11T15:43:10.236Z,101298.82
2023-02-11T15:46:38.962Z,101303.84
2023-02-11T15:49:54.758Z,101306.02
2023-02-11T15:53:07.043Z,101317.02
2023-02-11T15:56:20.438Z,101324.34
2023-02-11T15:59:49.395Z,101337.08
2023-02-11T16:02:57.579Z,101338.08
2023-02-11T16:06:20.071Z,101350.67
2023-02-11T16:09:34.050Z,101351.11
2023-02-11T16:12:39.452Z,101353.71
2023-02-11T16:15:47.548Z,101352.64
2023-02-11T16:19:05.975Z,101360.17
2023-02-11T16:22:12.994Z,101365.88
2023-02-11T16:25:19.883Z,101377.86
2023-02-11T16:28:25.624Z,101387.77
2023-02-11T16:31:37.901Z,101394.55
2023-02-11T16:34:43.501Z,101402.16
2023-02-11T16:37:49.096Z,101405.70
2023-02-11T16:40:56.741Z,101410.84
2023-02-11T16:44:02.414Z,101411.40
2023-02-11T16:47:08.741Z,101412.80
2023-02-11T16:50:21.809Z,101416.67
2023-02-11T16:53:27.337Z,101424.16
2023-02-11T16:56:35.916Z,101430.86
2023-02-11T16:59:41.391Z,101435.73
2023-02-11T17:02:47.017Z,101447.73
2023-02-11T17:06:03.272Z,101454.38
2023-02-11T17:09:10.897Z,101464.08
2023-02-11T17:12:16.554Z,101464.55
2023-02-11T17:15:22.139Z,101467.55
2023-02-11T17:18:28.157Z,101468.96
2023-02-11T17:21:33.614Z,101471.36
2023-02-11T17:24:49.147Z,101474.44
2023-02-11T17:27:54.930Z,101477.85
2023-02-11T17:31:02.767Z,101485.80
2023-02-11T17:34:19.192Z,101494.13
2023-02-11T17:37:24.782Z,101494.40
2023-02-11T17:40:30.485Z,101496.98
2023-02-11T17:43:35.982Z,101504.55
2023-02-11T17:46:44.953Z,101512.75
2023-02-11T17:49:50.477Z,101514.82
2023-02-11T17:52:55.997Z,101517.02
2023-02-11T17:56:06.391Z,101523.26
2023-02-11T17:59:13.295Z,101525.00
2023-02-11T18:02:21.965Z,101523.25
2023-02-11T18:05:34.426Z,101530.34
2023-02-11T18:08:57.569Z,101533.02
2023-02-11T18:12:05.920Z,101537.15
2023-02-11T18:15:14.457Z,101541.15
2023-02-11T18:18:40.066Z,101544.56
2023-02-11T18:21:48.883Z,101550.48
2023-02-11T18:24:56.943Z,101558.94
2023-02-11T18:28:12.415Z,101558.13
2023-02-11T18:31:18.495Z,101565.83
2023-02-11T18:34:27.191Z,101567.38
2023-02-11T18:37:32.693Z,101565.02
2023-02-11T18:40:41.683Z,101559.21
2023-02-11T18:44:07.432Z,101566.81
2023-02-11T18:47:15.735Z,101564.91
2023-02-11T18:50:43.344Z,101568.99
2023-02-11T18:53:59.806Z,101577.22
2023-02-11T18:57:05.186Z,101581.16
2023-02-11T19:00:14.151Z,101592.39
2023-02-11T19:03:32.164Z,101595.26
2023-02-11T19:06:38.698Z,101596.86
2023-02-11T19:09:44.633Z,101601.51
2023-02-11T19:13:10.999Z,101606.66
2023-02-11T19:16:20.036Z,101610.07
2023-02-11T19:19:28.373Z,101624.48
2023-02-11T19:22:33.993Z,101626.33
2023-02-11T19:25:59.681Z,101631.87
2023-02-11T19:29:05.133Z,101638.38
2023-02-11T19:32:13.330Z,101645.94
2023-02-11T19:35:30.089Z,101647.55
2023-02-11T19:38:35.642Z,101653.65
2023-02-11T19:41:43.964Z,101651.33
2023-02-11T19:44:49.680Z,101650.09
2023-02-11T19:47:58.641Z,101654.50
2023-02-11T19:51:12.823Z,101663.15
2023-02-11T19:54:30.284Z,101671.41
2023-02-11T19:57:37.150Z,101675.71
2023-02-11T20:00:43.113Z,101677.80
2023-02-11T20:03:58.553Z,101680.36
2023-02-11T20:07:04.289Z,101687.05
2023-02-11T20:10:22.619Z,101688.60
2023-02-11T20:13:29.774Z,101689.27
2023-02-11T20:16:49.863Z,101690.20
2023-02-11T20:19:55.803Z,101701.64
2023-02-11T20:23:01.196Z,101711.06
2023-02-11T20:26:11.182Z,101720.80
2023-02-11T20:29:16.900Z,101722.52
2023-02-11T20:32:42.461Z,101730.41
2023-02-11T20:36:00.101Z,101730.58
2023-02-11T20:39:18.716Z,101734.95
2023-02-11T20:42:44.511Z,101738.02
2023-02-11T20:46:10.560Z,101747.16
2023-02-11T20:49:20.215Z,101753.61
2023-02-11T20:52:39.805Z,101764.92
2023-02-11T20:56:06.685Z,101769.56
2023-02-11T20:59:21.022Z,101771.05
2023-02-11T21:02:30.421Z,101781.59
2023-02-11T21:05:36.168Z,101786.30
2023-02-11T21:08:52.675Z,101793.08
2023-02-11T21:12:18.275Z,101807.92
2023-02-11T21:15:33.836Z,101810.72
2023-02-11T21:18:50.017Z,101805.85
2023-02-11T21:21:57.515Z,101811.45
2023-02-11T21:25:09.048Z,101815.25
2023-02-11T21:28:27.355Z,101815.04
2023-02-11T21:31:53.642Z,101825.97
2023-02-11T21:35:02.381Z,101829.23
2023-02-11T21:38:28.636Z,101833.73
2023-02-11T21:41:56.044Z,101834.27
2023-02-11T21:45:21.761Z,101844.27
2023-02-11T21:48:27.653Z,101854.78
2023-02-11T21:51:35.404Z,101855.17
2023-02-11T21:54:51.972Z,101850.94
2023-02-11T21:58:18.219Z,101858.56
2023-02-11T22:01:35.402Z,101860.98
2023-02-11T22:04:51.225Z,101863.30
2023-02-11T22:07:58.842Z,101866.10
2023-02-11T22:11:09.967Z,101866.88
2023-02-11T22:14:16.127Z,101877.66
2023-02-11T22:17:24.790Z,101889.48
2023-02-11T22:20:59.684Z,101897.59
2023-02-11T22:24:15.440Z,101902.39
2023-02-11T22:27:21.020Z,101912.76
2023-02-11T22:30:26.665Z,101912.88
2023-02-11T22:33:34.826Z,101914.42
2023-02-11T22:36:47.032Z,101920.62
2023-02-11T22:39:52.639Z,101922.44
2023-02-11T22:42:58.129Z,101934.33
2023-02-11T22:46:23.743Z,101941.56
2023-02-11T22:49:49.611Z,101943.12
2023-02-11T22:52:55.317Z,101945.88
2023-02-11T22:56:04.567Z,101946.76
2023-02-11T22:59:14.471Z,101951.87
2023-02-11T23:02:22.451Z,101955.15
2023-02-11T23:05:46.854Z,101957.48
2023-02-11T23:08:55.328Z,101956.02
2023-02-11T23:12:20.944Z,101953.83
2023-02-11T23:15:47.667Z,101955.52
2023-02-11T23:19:14.483Z,101960.21
2023-02-11T23:22:42.389Z,101965.44
2023-02-11T23:26:10.360Z,101980.40
2023-02-11T23:29:36.028Z,101986.52
2023-02-11T23:33:01.551Z,101988.84
2023-02-11T23:36:27.311Z,101993.27
2023-02-11T23:39:53.052Z,102000.44
2023-02-11T23:43:18.935Z,102001.79
2023-02-11T23:47:31.875Z,102012.65
2023-02-11T23:50:32.715Z,102010.77
2023-02-11T23:53:58.385Z,102011.77
2023-02-11T23:57:24.372Z,102013.60
